createdAt,value
2023-02-28T00:00:49.401Z,-0.08
2023-02-28T00:03:51.118Z,-0.11
2023-02-28T00:06:52.701Z,-0.12
2023-02-28T00:09:55.813Z,-0.14
2023-02-28T00:13:00.425Z,-0.12
2023-02-28T00:16:03.154Z,-0.12
2023-02-28T00:19:04.707Z,-0.15
2023-02-28T00:22:06.594Z,-0.19
2023-02-28T00:25:10.465Z,-0.23
2023-02-28T00:28:12.095Z,-0.26
2023-02-28T00:31:13.857Z,-0.26
2023-02-28T00:34:15.417Z,-0.30
2023-02-28T00:37:17.151Z,-0.31
2023-02-28T00:40:20.139Z,-0.31
2023-02-28T00:43:21.991Z,-0.32
2023-02-28T00:46:23.552Z,-0.33
2023-02-28T00:49:26.360Z,-0.37
2023-02-28T00:52:28.014Z,-0.36
2023-02-28T00:55:31.459Z,-0.37
2023-02-28T00:58:33.214Z,-0.40
2023-02-28T01:01:35.511Z,-0.42
2023-02-28T01:04:37.441Z,-0.44
2023-02-28T01:07:39.432Z,-0.44
2023-02-28T01:10:42.524Z,-0.51
2023-02-28T01:13:45.166Z,-0.55
2023-02-28T01:16:47.539Z,-0.60
2023-02-28T01:19:49.122Z,-0.64
2023-02-28T01:22:50.666Z,-0.67
2023-02-28T01:25:53.643Z,-0.74
2023-02-28T01:28:55.366Z,-0.79
2023-02-28T01:31:58.198Z,-0.81
2023-02-28T01:34:59.767Z,-0.89
2023-02-28T01:38:15.784Z,-0.93
2023-02-28T01:41:25.200Z,-0.95
2023-02-28T01:44:47.239Z,-0.97
2023-02-28T01:47:49.483Z,-1.03
2023-02-28T01:50:51.250Z,-1.05
2023-02-28T01:53:56.749Z,-1.10
2023-02-28T01:57:01.905Z,-1.15
2023-02-28T02:00:06.129Z,-1.20
2023-02-28T02:03:17.364Z,-1.23
2023-02-28T02:06:19.076Z,-1.23
2023-02-28T02:09:21.068Z,-1.27
2023-02-28T02:12:29.390Z,-1.30
2023-02-28T02:15:33.766Z,-1.31
2023-02-28T02:18:39.110Z,-1.34
2023-02-28T02:22:04.905Z,-1.34
2023-02-28T02:25:20.647Z,-1.36
2023-02-28T02:28:34.690Z,-1.37
2023-02-28T02:31:54.401Z,-1.32
2023-02-28T02:35:04.221Z,-1.31
2023-02-28T02:38:10.240Z,-1.32
2023-02-28T02:41:15.533Z,-1.34
2023-02-28T02:44:21.543Z,-1.38
2023-02-28T02:47:28.621Z,-1.47
2023-02-28T02:50:34.640Z,-1.53
2023-02-28T02:53:38.189Z,-1.58
2023-02-28T02:56:42.265Z,-1.61
2023-02-28T02:59:44.219Z,-1.65
2023-02-28T03:02:46.721Z,-1.66
2023-02-28T03:05:51.430Z,-1.67
2023-02-28T03:08:53.457Z,-1.66
2023-02-28T03:11:57.955Z,-1.66
2023-02-28T03:15:05.239Z,-1.68
2023-02-28T03:18:09.372Z,-1.66
2023-02-28T03:21:18.911Z,-1.68
2023-02-28T03:24:23.669Z,-1.69
2023-02-28T03:27:28.495Z,-1.65
2023-02-28T03:30:32.826Z,-1.63
2023-02-28T03:33:36.959Z,-1.66
2023-02-28T03:36:45.521Z,-1.64
2023-02-28T03:39:50.200Z,-1.65
2023-02-28T03:42:55.107Z,-1.70
2023-02-28T03:45:57.446Z,-1.72
2023-02-28T03:49:03.176Z,-1.73
2023-02-28T03:52:07.101Z,-1.73
2023-02-28T03:55:11.253Z,-1.73
2023-02-28T03:58:17.190Z,-1.75
2023-02-28T04:01:21.321Z,-1.78
2023-02-28T04:04:23.745Z,-1.78
2023-02-28T04:07:37.999Z,-1.76
2023-02-28T04:10:40.039Z,-1.76
2023-02-28T04:13:41.619Z,-1.77
2023-02-28T04:16:43.373Z,-1.80
2023-02-28T04:19:45.232Z,-1.84
2023-02-28T04:22:48.547Z,-1.87
2023-02-28T04:25:52.226Z,-1.87
2023-02-28T04:28:53.767Z,-1.83
2023-02-28T04:31:55.570Z,-1.83
2023-02-28T04:34:57.220Z,-1.84
2023-02-28T04:38:00.529Z,-1.85
2023-02-28T04:41:02.209Z,-1.85
2023-02-28T04:44:03.918Z,-1.84
2023-02-28T04:47:05.689Z,-1.85
2023-02-28T04:50:07.631Z,-1.85
2023-02-28T04:53:10.649Z,-1.87
2023-02-28T04:56:13.406Z,-1.93
2023-02-28T04:59:15.002Z,-1.98
2023-02-28T05:02:16.552Z,-2.03
2023-02-28T05:05:19.649Z,-1.99
2023-02-28T05:08:22.740Z,-1.99
2023-02-28T05:11:26.371Z,-2.00
2023-02-28T05:14:27.958Z,-2.03
2023-02-28T05:17:29.515Z,-2.02
2023-02-28T05:20:31.241Z,-2.08
2023-02-28T05:23:34.536Z,-2.09
2023-02-28T05:26:38.039Z,-2.14
2023-02-28T05:29:44.241Z,-2.18
2023-02-28T05:32:50.915Z,-2.21
2023-02-28T05:35:52.470Z,-2.22
2023-02-28T05:38:55.606Z,-2.22
2023-02-28T05:41:57.491Z,-2.26
2023-02-28T05:44:59.125Z,-2.26
2023-02-28T05:48:00.805Z,-2.28
2023-02-28T05:51:03.576Z,-2.35
2023-02-28T05:54:06.656Z,-2.38
2023-02-28T05:57:18.941Z,-2.39
2023-02-28T06:00:25.677Z,-2.42
2023-02-28T06:03:27.857Z,-2.43
2023-02-28T06:06:30.578Z,-2.45
2023-02-28T06:09:33.504Z,-2.45
2023-02-28T06:12:35.012Z,-2.47
2023-02-28T06:15:36.667Z,-2.49
2023-02-28T06:18:38.859Z,-2.48
2023-02-28T06:21:40.704Z,-2.44
2023-02-28T06:24:43.607Z,-2.45
2023-02-28T06:27:45.264Z,-2.44
2023-02-28T06:30:47.041Z,-2.38
2023-02-28T06:33:48.790Z,-2.34
2023-02-28T06:36:51.769Z,-2.27
2023-02-28T06:39:57.097Z,-2.18
2023-02-28T06:42:59.170Z,-2.14
2023-02-28T06:46:01.889Z,-2.09
2023-02-28T06:49:03.626Z,-2.07
2023-02-28T06:52:05.739Z,-2.04
2023-02-28T06:55:09.370Z,-2.00
2023-02-28T06:58:16.964Z,-1.99
2023-02-28T07:01:18.624Z,-1.97
2023-02-28T07:04:20.263Z,-1.94
2023-02-28T07:07:21.890Z,-1.93
2023-02-28T07:10:24.785Z,-1.92
2023-02-28T07:13:26.659Z,-1.92
2023-02-28T07:16:28.335Z,-1.93
2023-02-28T07:19:30.120Z,-1.93
2023-02-28T07:22:31.799Z,-1.94
2023-02-28T07:25:34.698Z,-1.89
2023-02-28T07:28:36.269Z,-1.87
2023-02-28T07:31:38.498Z,-1.82
2023-02-28T07:34:40.239Z,-1.68
2023-02-28T07:37:42.599Z,-1.62
2023-02-28T07:40:45.548Z,-1.58
2023-02-28T07:43:47.140Z,-1.53
2023-02-28T07:46:48.849Z,-1.46
2023-02-28T07:53:51.760Z,-1.36
2023-02-28T07:56:54.759Z,-1.26
2023-02-28T07:59:56.375Z,-1.16
2023-02-28T08:02:57.916Z,-1.14
2023-02-28T08:05:59.585Z,-1.12
2023-02-28T08:09:01.230Z,-1.19
2023-02-28T08:12:04.365Z,-1.24
2023-02-28T08:15:06.373Z,-1.21
2023-02-28T08:18:10.821Z,-1.13
2023-02-28T08:21:12.797Z,-1.05
2023-02-28T08:24:14.279Z,-0.98
2023-02-28T08:27:18.327Z,-0.86
2023-02-28T08:30:20.179Z,-0.77
2023-02-28T08:33:22.023Z,-0.79
2023-02-28T08:36:24.895Z,-0.84
2023-02-28T08:39:26.497Z,-0.81
2023-02-28T08:42:29.501Z,-0.77
2023-02-28T08:45:31.701Z,-0.67
2023-02-28T08:48:35.801Z,-0.63
2023-02-28T08:51:37.484Z,-0.62
2023-02-28T08:54:39.739Z,-0.61
2023-02-28T08:57:42.753Z,-0.55
2023-02-28T09:00:44.374Z,-0.50
2023-02-28T09:03:47.146Z,-0.39
2023-02-28T09:06:49.820Z,-0.23
2023-02-28T09:09:58.796Z,-0.12
2023-02-28T09:13:01.900Z,0.08
2023-02-28T09:16:04.910Z,0.07
2023-02-28T09:19:06.559Z,-0.01
2023-02-28T09:22:08.111Z,0.05
2023-02-28T09:25:09.690Z,0.15
2023-02-28T09:28:12.712Z,0.24
2023-02-28T09:31:14.870Z,0.20
2023-02-28T09:34:18.622Z,0.25
2023-02-28T09:37:20.349Z,0.41
2023-02-28T09:40:23.588Z,0.46
2023-02-28T09:43:29.756Z,0.46
2023-02-28T09:46:34.176Z,0.43
2023-02-28T09:49:39.159Z,0.43
2023-02-28T09:52:41.159Z,0.49
2023-02-28T09:55:47.049Z,0.56
2023-02-28T09:58:52.717Z,0.37
2023-02-28T10:01:58.418Z,0.29
2023-02-28T10:05:01.621Z,0.29
2023-02-28T10:08:06.801Z,0.40
2023-02-28T10:11:11.550Z,0.46
2023-02-28T10:14:19.198Z,0.46
2023-02-28T10:17:22.012Z,0.58
2023-02-28T10:20:30.724Z,0.95
2023-02-28T10:23:35.851Z,1.26
2023-02-28T10:26:37.659Z,1.39
2023-02-28T10:29:43.500Z,1.61
2023-02-28T10:32:48.634Z,1.60
2023-02-28T10:35:50.739Z,1.80
2023-02-28T10:38:52.392Z,1.80
2023-02-28T10:41:54.782Z,1.87
2023-02-28T10:45:08.253Z,1.45
2023-02-28T10:48:28.093Z,1.20
2023-02-28T10:51:35.387Z,1.22
2023-02-28T10:54:38.807Z,1.27
2023-02-28T10:57:40.898Z,1.42
2023-02-28T11:00:43.861Z,1.74
2023-02-28T11:03:45.699Z,1.99
2023-02-28T11:06:47.461Z,2.21
2023-02-28T11:09:50.351Z,2.32
2023-02-28T11:12:55.552Z,2.49
2023-02-28T11:16:00.001Z,2.63
2023-02-28T11:19:01.678Z,2.70
2023-02-28T11:22:05.013Z,2.69
2023-02-28T11:25:09.066Z,2.69
2023-02-28T11:28:25.786Z,3.13
2023-02-28T11:31:30.894Z,3.13
2023-02-28T11:34:33.395Z,2.89
2023-02-28T11:37:35.565Z,2.98
2023-02-28T11:40:42.411Z,2.76
2023-02-28T11:43:53.492Z,3.04
2023-02-28T11:46:59.917Z,3.13
2023-02-28T11:50:08.621Z,3.03
2023-02-28T11:53:14.971Z,3.08
2023-02-28T11:56:24.228Z,3.15
2023-02-28T11:59:46.339Z,3.15
2023-02-28T12:03:00.137Z,3.42
2023-02-28T12:06:10.688Z,3.61
2023-02-28T12:09:19.799Z,3.65
2023-02-28T12:12:25.501Z,3.71
2023-02-28T12:15:42.627Z,3.43
2023-02-28T12:18:54.406Z,3.45
2023-02-28T12:22:07.781Z,3.49
2023-02-28T12:25:25.365Z,3.56
2023-02-28T12:28:29.583Z,3.63
2023-02-28T12:31:33.298Z,3.45
2023-02-28T12:34:39.343Z,3.69
2023-02-28T12:37:44.011Z,3.76
2023-02-28T12:40:48.759Z,3.84
2023-02-28T12:43:54.023Z,4.04
2023-02-28T12:46:59.270Z,4.07
2023-02-28T12:50:04.304Z,4.13
2023-02-28T12:53:07.936Z,4.25
2023-02-28T12:56:16.120Z,4.06
2023-02-28T12:59:23.931Z,4.23
2023-02-28T13:02:44.518Z,4.18
2023-02-28T13:06:04.743Z,4.10
2023-02-28T13:09:10.301Z,4.25
2023-02-28T13:12:16.244Z,3.99
2023-02-28T13:15:22.489Z,4.04
2023-02-28T13:18:29.784Z,4.15
2023-02-28T13:21:42.605Z,4.01
2023-02-28T13:24:46.107Z,3.85
2023-02-28T13:27:51.639Z,4.18
2023-02-28T13:31:06.013Z,4.45
2023-02-28T13:34:15.440Z,4.56
2023-02-28T13:37:38.034Z,4.57
2023-02-28T13:40:39.628Z,4.45
2023-02-28T13:44:00.654Z,4.34
2023-02-28T13:47:20.617Z,4.16
2023-02-28T13:50:24.906Z,4.32
2023-02-28T13:53:37.526Z,4.51
2023-02-28T13:56:45.971Z,4.57
2023-02-28T13:59:51.497Z,4.67
2023-02-28T14:03:04.187Z,4.78
2023-02-28T14:06:10.988Z,4.56
2023-02-28T14:09:20.439Z,4.57
2023-02-28T14:12:40.780Z,4.57
2023-02-28T14:15:45.918Z,4.60
2023-02-28T14:18:51.097Z,4.65
2023-02-28T14:22:03.735Z,4.71
2023-02-28T14:25:18.754Z,4.61
2023-02-28T14:28:25.554Z,4.57
2023-02-28T14:31:31.313Z,4.63
2023-02-28T14:34:38.697Z,4.67
2023-02-28T14:37:42.257Z,4.61
2023-02-28T14:40:46.643Z,4.53
2023-02-28T14:43:49.351Z,4.60
2023-02-28T14:46:53.116Z,4.64
2023-02-28T14:49:54.971Z,4.52
2023-02-28T14:52:57.405Z,4.56
2023-02-28T14:56:01.260Z,4.44
2023-02-28T14:59:03.088Z,4.49
2023-02-28T15:02:17.630Z,4.54
2023-02-28T15:05:29.586Z,4.51
2023-02-28T15:08:36.089Z,4.36
2023-02-28T15:11:40.085Z,4.30
2023-02-28T15:14:43.537Z,4.33
2023-02-28T15:17:47.912Z,4.32
2023-02-28T15:20:50.372Z,4.27
2023-02-28T15:23:54.272Z,4.23
2023-02-28T15:26:59.050Z,4.09
2023-02-28T15:30:01.610Z,4.04
2023-02-28T15:33:09.378Z,3.86
2023-02-28T15:36:14.379Z,3.78
2023-02-28T15:39:23.104Z,3.78
2023-02-28T15:42:29.245Z,3.76
2023-02-28T15:45:36.323Z,3.70
2023-02-28T15:48:39.015Z,3.69
2023-02-28T15:51:40.871Z,3.51
2023-02-28T15:54:43.903Z,3.42
2023-02-28T15:57:47.661Z,3.37
2023-02-28T16:01:00.997Z,3.36
2023-02-28T16:04:04.393Z,3.42
2023-02-28T16:07:06.930Z,3.36
2023-02-28T16:10:10.209Z,3.31
2023-02-28T16:13:16.152Z,3.26
2023-02-28T16:16:18.403Z,3.21
2023-02-28T16:19:20.143Z,3.16
2023-02-28T16:22:22.255Z,3.11
2023-02-28T16:25:24.847Z,3.00
2023-02-28T16:28:30.843Z,2.82
2023-02-28T16:31:35.751Z,2.65
2023-02-28T16:34:37.605Z,2.47
2023-02-28T16:37:39.778Z,2.39
2023-02-28T16:40:41.796Z,2.29
2023-02-28T16:43:44.640Z,2.25
2023-02-28T16:50:13.943Z,2.05
2023-02-28T16:53:15.985Z,1.94
2023-02-28T16:56:19.485Z,1.87
2023-02-28T16:59:23.054Z,1.79
2023-02-28T17:02:25.110Z,1.73
2023-02-28T17:05:30.239Z,1.70
2023-02-28T17:08:33.432Z,1.65
2023-02-28T17:11:35.050Z,1.58
2023-02-28T17:14:36.855Z,1.53
2023-02-28T17:17:38.821Z,1.45
2023-02-28T17:20:44.986Z,1.38
2023-02-28T17:23:46.647Z,1.32
2023-02-28T17:26:48.254Z,1.28
2023-02-28T17:29:49.907Z,1.26
2023-02-28T17:39:27.941Z,1.08
2023-02-28T17:42:29.506Z,1.02
2023-02-28T17:45:31.192Z,1.01
2023-02-28T17:48:33.103Z,0.94
2023-02-28T17:51:34.725Z,0.92
2023-02-28T17:54:37.879Z,0.86
2023-02-28T17:57:39.994Z,0.80
2023-02-28T18:00:41.749Z,0.77
2023-02-28T18:03:43.478Z,0.74
2023-02-28T18:06:48.364Z,0.76
2023-02-28T18:09:51.303Z,0.71
2023-02-28T18:12:53.465Z,0.69
2023-02-28T18:15:55.271Z,0.67
2023-02-28T18:18:57.744Z,0.66
2023-02-28T18:21:59.453Z,0.66
2023-02-28T18:25:02.357Z,0.68
2023-02-28T18:28:05.752Z,0.65
2023-02-28T18:31:09.594Z,0.60
2023-02-28T18:34:11.447Z,0.55
2023-02-28T18:37:13.584Z,0.51
2023-02-28T18:40:16.644Z,0.49
2023-02-28T18:43:19.109Z,0.46
2023-02-28T18:46:21.096Z,0.43
2023-02-28T18:49:22.874Z,0.40
2023-02-28T18:52:24.483Z,0.37
2023-02-28T18:58:40.989Z,0.32
2023-02-28T19:05:03.614Z,0.26
2023-02-28T19:08:05.334Z,0.27
2023-02-28T19:11:07.938Z,0.24
2023-02-28T19:14:10.830Z,0.24
2023-02-28T19:17:14.453Z,0.21
2023-02-28T19:20:16.740Z,0.19
2023-02-28T19:23:19.251Z,0.17
2023-02-28T19:26:22.663Z,0.21
2023-02-28T19:29:25.589Z,0.20
2023-02-28T19:36:13.411Z,0.18
2023-02-28T19:39:14.978Z,0.17
2023-02-28T19:42:17.361Z,0.13
2023-02-28T19:45:20.441Z,0.13
2023-02-28T19:48:26.168Z,0.13
2023-02-28T19:51:28.799Z,0.12
2023-02-28T19:54:30.860Z,0.10
2023-02-28T19:57:32.570Z,0.05
2023-02-28T20:00:35.721Z,-0.02
2023-02-28T20:03:39.440Z,-0.03
2023-02-28T20:06:42.034Z,-0.05
2023-02-28T20:09:44.889Z,-0.07
2023-02-28T20:12:46.637Z,-0.13
2023-02-28T20:15:49.853Z,-0.15
2023-02-28T20:18:51.607Z,-0.15
2023-02-28T20:21:53.494Z,-0.16
2023-02-28T20:24:55.131Z,-0.16
2023-02-28T20:27:57.230Z,-0.17
2023-02-28T20:31:00.875Z,-0.19
2023-02-28T20:34:02.895Z,-0.18
2023-02-28T20:40:25.589Z,-0.17
2023-02-28T20:43:27.424Z,-0.21
2023-02-28T20:46:31.727Z,-0.23
2023-02-28T20:49:33.778Z,-0.26
2023-02-28T20:52:35.328Z,-0.27
2023-02-28T20:55:37.156Z,-0.32
2023-02-28T20:58:38.767Z,-0.37
2023-02-28T21:01:44.734Z,-0.41
2023-02-28T21:04:46.371Z,-0.40
2023-02-28T21:07:48.248Z,-0.41
2023-02-28T21:10:53.219Z,-0.43
2023-02-28T21:13:55.361Z,-0.45
2023-02-28T21:16:58.520Z,-0.46
2023-02-28T21:20:00.279Z,-0.44
2023-02-28T21:23:02.424Z,-0.40
2023-02-28T21:26:05.419Z,-0.43
2023-02-28T21:29:07.508Z,-0.44
2023-02-28T21:32:10.767Z,-0.47
2023-02-28T21:35:12.654Z,-0.53
2023-02-28T21:38:14.278Z,-0.59
2023-02-28T21:44:30.712Z,-0.69
2023-02-28T21:47:36.597Z,-0.76
2023-02-28T21:50:38.675Z,-0.79
2023-02-28T21:53:44.672Z,-0.84
2023-02-28T21:56:47.034Z,-0.90
2023-02-28T21:59:48.669Z,-0.96
2023-02-28T22:02:51.540Z,-1.03
2023-02-28T22:05:53.146Z,-1.10
2023-02-28T22:08:56.391Z,-1.13
2023-02-28T22:11:58.119Z,-1.12
2023-02-28T22:14:59.687Z,-1.12
2023-02-28T22:18:02.598Z,-1.16
2023-02-28T22:21:04.625Z,-1.18
2023-02-28T22:24:06.817Z,-1.18
2023-02-28T22:27:08.572Z,-1.17
2023-02-28T22:37:26.254Z,-1.25
2023-02-28T22:40:27.743Z,-1.23
2023-02-28T22:43:30.048Z,-1.22
2023-02-28T22:46:33.171Z,-1.24
2023-02-28T22:49:35.180Z,-1.33
2023-02-28T22:52:41.008Z,-1.38
2023-02-28T22:55:42.583Z,-1.38
2023-02-28T22:58:48.305Z,-1.32
2023-02-28T23:01:50.040Z,-1.30
2023-02-28T23:04:51.834Z,-1.32
2023-02-28T23:07:54.919Z,-1.37
2023-02-28T23:10:56.488Z,-1.38
2023-02-28T23:13:58.849Z,-1.38
2023-02-28T23:17:00.673Z,-1.37
2023-02-28T23:20:02.191Z,-1.37
2023-02-28T23:23:05.446Z,-1.39
2023-02-28T23:26:07.527Z,-1.47
2023-02-28T23:29:09.642Z,-1.52
2023-02-28T23:32:11.377Z,-1.53
2023-02-28T23:35:12.990Z,-1.50
2023-02-28T23:38:15.897Z,-1.54
2023-02-28T23:41:18.096Z,-1.57
2023-02-28T23:44:19.831Z,-1.57
2023-02-28T23:47:22.343Z,-1.58
2023-02-28T23:50:23.880Z,-1.61
2023-02-28T23:53:29.771Z,-1.64
2023-02-28T23:56:31.832Z,-1.61
2023-02-28T23:59:33.906Z,-1.62
